createdAt,value
2018-01-04T00:00:17.130Z,17.7
2018-01-04T00:01:19.752Z,17.7
2018-01-04T00:02:22.468Z,17.7
2018-01-04T00:03:25.154Z,17.7
2018-01-04T00:04:27.975Z,17.7
2018-01-04T00:05:30.513Z,17.6
2018-01-04T00:06:33.867Z,17.6
2018-01-04T00:07:36.345Z,17.6
2018-01-04T00:08:38.883Z,17.6
2018-01-04T00:09:41.464Z,17.6
2018-01-04T00:10:43.986Z,17.6
2018-01-04T00:11:46.494Z,17.6
2018-01-04T00:12:49.155Z,17.6
2018-01-04T00:13:51.856Z,17.6
2018-01-04T00:14:54.376Z,16.9
2018-01-04T00:15:56.810Z,16.1
2018-01-04T00:16:59.594Z,15.8
2018-01-04T00:18:02.220Z,15.9
2018-01-04T00:19:04.835Z,15.6
2018-01-04T00:20:07.427Z,15.3
2018-01-04T00:21:09.925Z,15.1
2018-01-04T00:22:14.224Z,14.8
2018-01-04T00:23:16.895Z,14.6
2018-01-04T00:24:19.443Z,14.9
2018-01-04T00:25:22.023Z,15.1
2018-01-04T00:26:24.670Z,15.1
2018-01-04T00:27:27.163Z,14.9
2018-01-04T00:28:29.754Z,14.5
2018-01-04T00:29:32.317Z,14.7
2018-01-04T00:30:34.974Z,14.5
2018-01-04T00:31:37.592Z,14.5
2018-01-04T00:32:40.575Z,14.5
2018-01-04T00:33:43.132Z,14.5
2018-01-04T00:34:45.649Z,14.4
2018-01-04T00:35:48.184Z,14.6
2018-01-04T00:36:50.685Z,14.6
2018-01-04T00:37:53.238Z,14.3
2018-01-04T00:38:55.754Z,14.4
2018-01-04T00:39:58.381Z,14.3
2018-01-04T00:41:00.979Z,14.4
2018-01-04T00:42:04.880Z,14.6
2018-01-04T00:43:11.839Z,14.1
2018-01-04T00:44:14.459Z,14.1
2018-01-04T00:45:17.077Z,14.3
2018-01-04T00:46:19.961Z,14.2
2018-01-04T00:47:22.507Z,14
2018-01-04T00:48:24.976Z,14
2018-01-04T00:49:27.890Z,14.1
2018-01-04T00:50:30.816Z,14.1
2018-01-04T00:51:33.628Z,13.9
2018-01-04T00:52:36.161Z,13.8
2018-01-04T00:53:38.758Z,13.9
2018-01-04T00:54:42.125Z,14
2018-01-04T00:55:45.286Z,14
2018-01-04T00:56:48.231Z,13.5
2018-01-04T00:57:52.409Z,13.5
2018-01-04T00:58:55.357Z,13.5
2018-01-04T00:59:57.843Z,13.8
2018-01-04T01:01:00.405Z,13.7
2018-01-04T01:02:03.252Z,13.9
2018-01-04T01:03:05.732Z,13.5
2018-01-04T01:04:08.219Z,13.5
2018-01-04T01:05:10.779Z,13.5
2018-01-04T01:06:13.262Z,13.8
2018-01-04T01:07:19.709Z,13.7
2018-01-04T01:08:22.588Z,13.6
2018-01-04T01:09:25.147Z,13.5
2018-01-04T01:10:27.648Z,13.2
2018-01-04T01:11:30.157Z,13.2
2018-01-04T01:12:32.710Z,13.7
2018-01-04T01:13:38.013Z,13.6
2018-01-04T01:14:40.617Z,13.6
2018-01-04T01:15:43.208Z,13.5
2018-01-04T01:16:46.016Z,13.4
2018-01-04T01:17:48.736Z,13.1
2018-01-04T01:18:51.262Z,13.4
2018-01-04T01:19:53.921Z,13.4
2018-01-04T01:20:56.526Z,13.9
2018-01-04T01:21:59.047Z,14.2
2018-01-04T01:23:01.613Z,14
2018-01-04T01:24:04.391Z,13.9
2018-01-04T01:25:06.830Z,13.8
2018-01-04T01:26:09.403Z,13.4
2018-01-04T01:27:11.956Z,13.5
2018-01-04T01:28:14.536Z,13.2
2018-01-04T01:29:17.109Z,13.7
2018-01-04T01:30:19.623Z,13.7
2018-01-04T01:31:22.113Z,13.5
2018-01-04T01:32:24.651Z,13.3
2018-01-04T01:33:27.245Z,13.1
2018-01-04T01:34:29.940Z,13
2018-01-04T01:35:32.547Z,13.4
2018-01-04T01:36:35.062Z,13.7
2018-01-04T01:37:38.270Z,13.3
2018-01-04T01:38:40.847Z,13.4
2018-01-04T01:39:43.332Z,13.4
2018-01-04T01:40:45.800Z,13.6
2018-01-04T01:41:48.301Z,13.5
2018-01-04T01:42:50.797Z,13
2018-01-04T01:43:53.411Z,13.1
2018-01-04T01:44:56.334Z,13.3
2018-01-04T01:45:58.954Z,13.3
2018-01-04T01:47:01.625Z,13.2
2018-01-04T01:48:04.172Z,13.5
2018-01-04T01:49:06.771Z,13.5
2018-01-04T01:50:09.374Z,13.5
2018-01-04T01:51:11.885Z,13.4
2018-01-04T01:52:14.440Z,13.7
2018-01-04T01:53:16.933Z,13.5
2018-01-04T01:54:19.603Z,12.9
2018-01-04T01:55:22.268Z,13
2018-01-04T01:56:24.953Z,12.9
2018-01-04T01:57:27.536Z,13
2018-01-04T01:58:30.140Z,12.9
2018-01-04T01:59:32.691Z,13
2018-01-04T02:00:35.211Z,13.1
2018-01-04T02:01:37.737Z,13.1
2018-01-04T02:02:40.234Z,12.8
2018-01-04T02:03:42.782Z,12.6
2018-01-04T02:04:45.253Z,12.8
2018-01-04T02:05:47.765Z,12.8
2018-01-04T02:06:50.194Z,12.9
2018-01-04T02:07:52.776Z,13.2
2018-01-04T02:08:55.234Z,13.3
2018-01-04T02:09:57.780Z,13
2018-01-04T02:11:00.403Z,13.1
2018-01-04T02:12:02.987Z,13.1
2018-01-04T02:13:05.609Z,13.1
2018-01-04T02:14:08.226Z,13
2018-01-04T02:15:10.723Z,13
2018-01-04T02:16:13.285Z,12.6
2018-01-04T02:17:15.792Z,12.6
2018-01-04T02:18:18.301Z,12.7
2018-01-04T02:19:20.834Z,12.9
2018-01-04T02:20:23.387Z,13.3
2018-01-04T02:21:25.911Z,13.1
2018-01-04T02:22:28.898Z,12.9
2018-01-04T02:23:31.467Z,12.6
2018-01-04T02:24:33.995Z,12.8
2018-01-04T02:25:36.489Z,12.9
2018-01-04T02:26:38.979Z,12.8
2018-01-04T02:27:42.020Z,12.9
2018-01-04T02:28:44.453Z,12.6
2018-01-04T02:29:46.929Z,12.8
2018-01-04T02:30:49.389Z,12.5
2018-01-04T02:31:51.992Z,12.8
2018-01-04T02:32:54.750Z,12.7
2018-01-04T02:33:57.296Z,12.9
2018-01-04T02:35:00.230Z,13.1
2018-01-04T02:36:02.924Z,13.5
2018-01-04T02:37:06.096Z,13.4
2018-01-04T02:38:09.887Z,12.8
2018-01-04T02:39:14.346Z,12.8
2018-01-04T02:40:16.954Z,12.6
2018-01-04T02:41:19.477Z,13
2018-01-04T02:42:22.044Z,12.8
2018-01-04T02:43:25.300Z,12.5
2018-01-04T02:44:28.085Z,12.4
2018-01-04T02:45:31.012Z,12.6
2018-01-04T02:46:33.572Z,12.5
2018-01-04T02:47:36.109Z,12.8
2018-01-04T02:48:38.602Z,12.5
2018-01-04T02:49:41.087Z,12.7
2018-01-04T02:50:43.593Z,12.9
2018-01-04T02:51:46.072Z,12.6
2018-01-04T02:52:48.934Z,12.7
2018-01-04T02:53:51.774Z,12.6
2018-01-04T02:54:54.266Z,12.5
2018-01-04T02:55:56.731Z,12.5
2018-01-04T02:56:59.592Z,12.7
2018-01-04T02:58:02.374Z,12.6
2018-01-04T02:59:05.211Z,12.7
2018-01-04T03:00:07.727Z,12.6
2018-01-04T03:01:10.688Z,13.1
2018-01-04T03:02:13.315Z,13.1
2018-01-04T03:03:16.220Z,12.6
2018-01-04T03:04:18.840Z,12.5
2018-01-04T03:05:21.487Z,12.7
2018-01-04T03:06:24.038Z,12.7
2018-01-04T03:07:26.539Z,12.6
2018-01-04T03:08:29.450Z,13.1
2018-01-04T03:09:32.035Z,12.9
2018-01-04T03:10:34.786Z,12.9
2018-01-04T03:11:37.343Z,12.8
2018-01-04T03:12:39.833Z,13
2018-01-04T03:13:42.469Z,13
2018-01-04T03:14:44.932Z,13
2018-01-04T03:15:47.518Z,12.9
2018-01-04T03:16:50.032Z,12.9
2018-01-04T03:17:52.603Z,12.8
2018-01-04T03:18:55.439Z,12.7
2018-01-04T03:19:57.938Z,12.7
2018-01-04T03:21:00.918Z,13
2018-01-04T03:22:03.510Z,13
2018-01-04T03:23:06.375Z,12.5
2018-01-04T03:24:09.021Z,12.5
2018-01-04T03:25:11.512Z,12.5
2018-01-04T03:26:14.146Z,12.3
2018-01-04T03:27:16.654Z,12.4
2018-01-04T03:28:19.120Z,12.5
2018-01-04T03:29:21.626Z,12.6
2018-01-04T03:30:24.303Z,12.9
2018-01-04T03:31:26.814Z,12.6
2018-01-04T03:32:30.899Z,12.7
2018-01-04T03:33:38.855Z,12.9
2018-01-04T03:34:41.325Z,12.7
2018-01-04T03:35:44.111Z,12.4
2018-01-04T03:36:46.654Z,12.5
2018-01-04T03:37:49.113Z,12.3
2018-01-04T03:38:51.840Z,12.7
2018-01-04T03:39:54.300Z,12.8
2018-01-04T03:40:57.059Z,12.6
2018-01-04T03:41:59.858Z,12.7
2018-01-04T03:43:02.486Z,12.8
2018-01-04T03:44:05.545Z,12.3
2018-01-04T03:45:08.086Z,12.4
2018-01-04T03:46:10.704Z,12.4
2018-01-04T03:47:13.479Z,12.1
2018-01-04T03:48:16.146Z,12.2
2018-01-04T03:49:18.665Z,12.4
2018-01-04T03:50:21.260Z,12.3
2018-01-04T03:51:23.935Z,12.6
2018-01-04T03:52:26.576Z,12.3
2018-01-04T03:53:29.168Z,12.3
2018-01-04T03:54:31.667Z,12.1
2018-01-04T03:55:34.313Z,12.1
2018-01-04T03:56:36.810Z,12.2
2018-01-04T03:57:39.327Z,12.3
2018-01-04T03:58:45.592Z,12.6
2018-01-04T03:59:49.593Z,12.9
2018-01-04T04:00:52.080Z,12.5
2018-01-04T04:01:54.866Z,12.2
2018-01-04T04:02:58.792Z,12.3
2018-01-04T04:04:01.496Z,12.3
2018-01-04T04:05:03.995Z,12.4
2018-01-04T04:06:06.479Z,12.4
2018-01-04T04:07:08.939Z,12.3
2018-01-04T04:08:11.513Z,12.1
2018-01-04T04:09:14.138Z,12.4
2018-01-04T04:10:16.629Z,12.3
2018-01-04T04:11:19.379Z,12.4
2018-01-04T04:12:22.404Z,12.4
2018-01-04T04:13:25.823Z,12.1
2018-01-04T04:14:28.369Z,11.9
2018-01-04T04:15:30.998Z,12.1
2018-01-04T04:16:33.588Z,11.9
2018-01-04T04:17:38.260Z,11.9
2018-01-04T04:18:40.774Z,12.2
2018-01-04T04:19:43.263Z,12.1
2018-01-04T04:20:47.337Z,12.3
2018-01-04T04:21:50.543Z,12.4
2018-01-04T04:22:53.162Z,12.3
2018-01-04T04:23:55.822Z,12
2018-01-04T04:24:58.412Z,12
2018-01-04T04:26:00.891Z,12.4
2018-01-04T04:27:03.445Z,12.2
2018-01-04T04:28:08.354Z,12
2018-01-04T04:29:11.665Z,12
2018-01-04T04:30:14.182Z,12.1
2018-01-04T04:31:16.712Z,12.2
2018-01-04T04:32:19.232Z,12.2
2018-01-04T04:33:21.772Z,12.3
2018-01-04T04:34:24.424Z,12.2
2018-01-04T04:35:27.126Z,12.2
2018-01-04T04:36:29.959Z,12
2018-01-04T04:37:32.628Z,11.9
2018-01-04T04:38:35.252Z,11.8
2018-01-04T04:39:37.793Z,11.9
2018-01-04T04:40:40.384Z,12.2
2018-01-04T04:41:43.380Z,11.9
2018-01-04T04:42:45.969Z,11.9
2018-01-04T04:43:49.693Z,12.3
2018-01-04T04:44:52.189Z,12.4
2018-01-04T04:45:54.682Z,12.5
2018-01-04T04:46:57.270Z,12.3
2018-01-04T04:47:59.752Z,12.2
2018-01-04T04:49:02.407Z,12.4
2018-01-04T04:50:05.050Z,12.3
2018-01-04T04:51:07.575Z,12.2
2018-01-04T04:52:10.143Z,12.4
2018-01-04T04:53:12.988Z,12.6
2018-01-04T04:54:15.607Z,12.7
2018-01-04T04:55:18.419Z,12.8
2018-01-04T04:56:21.055Z,12.5
2018-01-04T04:57:23.829Z,12.7
2018-01-04T04:58:28.093Z,12.3
2018-01-04T04:59:30.743Z,12.5
2018-01-04T05:00:33.377Z,12.5
2018-01-04T05:01:35.966Z,12.5
2018-01-04T05:02:38.415Z,12.6
2018-01-04T05:03:41.172Z,12.7
2018-01-04T05:04:43.643Z,12.8
2018-01-04T05:05:46.611Z,12.9
2018-01-04T05:06:49.486Z,12.8
2018-01-04T05:07:51.976Z,13
2018-01-04T05:08:54.554Z,12.8
2018-01-04T05:09:57.474Z,12.6
2018-01-04T05:10:59.969Z,12.8
2018-01-04T05:12:02.561Z,12.8
2018-01-04T05:13:05.180Z,12.6
2018-01-04T05:14:07.750Z,12.7
2018-01-04T05:15:10.324Z,12.4
2018-01-04T05:16:12.785Z,12.9
2018-01-04T05:17:15.246Z,13
2018-01-04T05:18:18.087Z,12.9
2018-01-04T05:19:20.704Z,13
2018-01-04T05:20:23.245Z,12.5
2018-01-04T05:21:25.873Z,12.6
2018-01-04T05:22:28.403Z,12.7
2018-01-04T05:23:30.963Z,13.4
2018-01-04T05:24:33.848Z,13.7
2018-01-04T05:25:36.340Z,13.6
2018-01-04T05:26:39.297Z,13.1
2018-01-04T05:27:41.762Z,13.1
2018-01-04T05:28:44.593Z,13.2
2018-01-04T05:29:47.242Z,13.7
2018-01-04T05:30:50.650Z,13.8
2018-01-04T05:31:53.431Z,13.5
2018-01-04T05:32:55.894Z,13.2
2018-01-04T05:33:58.401Z,13.1
2018-01-04T05:35:01.056Z,13.1
2018-01-04T05:36:03.568Z,13.2
2018-01-04T05:37:06.035Z,13.3
2018-01-04T05:38:08.605Z,13.3
2018-01-04T05:39:11.138Z,13.1
2018-01-04T05:40:14.396Z,12.9
2018-01-04T05:41:16.930Z,12.9
2018-01-04T05:42:19.751Z,13.1
2018-01-04T05:43:22.369Z,13.5
2018-01-04T05:44:24.880Z,13.5
2018-01-04T05:45:27.412Z,13.4
2018-01-04T05:46:30.218Z,13.1
2018-01-04T05:47:32.756Z,13.3
2018-01-04T05:48:35.273Z,13.3
2018-01-04T05:49:37.855Z,13.6
2018-01-04T05:50:40.493Z,13.2
2018-01-04T05:51:43.058Z,13.3
2018-01-04T05:52:45.595Z,13.9
2018-01-04T05:53:48.179Z,13.7
2018-01-04T05:54:50.671Z,13.7
2018-01-04T05:55:53.403Z,13.5
2018-01-04T05:56:55.926Z,13.8
2018-01-04T05:57:58.503Z,13.8
2018-01-04T05:59:01.028Z,14.1
2018-01-04T06:00:03.623Z,14
2018-01-04T06:01:06.683Z,14.1
2018-01-04T06:02:09.467Z,13.8
2018-01-04T06:03:12.621Z,14.3
2018-01-04T06:04:15.140Z,14.2
2018-01-04T06:05:17.713Z,13.9
2018-01-04T06:06:20.402Z,14
2018-01-04T06:07:23.436Z,14.1
2018-01-04T06:08:26.010Z,14
2018-01-04T06:09:28.681Z,14.1
2018-01-04T06:10:33.593Z,14
2018-01-04T06:11:36.145Z,13.9
2018-01-04T06:12:38.923Z,13.8
2018-01-04T06:13:43.218Z,13.7
2018-01-04T06:14:45.810Z,13.9
2018-01-04T06:15:48.414Z,13.7
2018-01-04T06:16:51.032Z,14
2018-01-04T06:17:53.612Z,13.7
2018-01-04T06:18:56.970Z,14
2018-01-04T06:19:59.685Z,13.9
2018-01-04T06:21:02.560Z,14
2018-01-04T06:22:05.142Z,14.7
2018-01-04T06:23:07.891Z,14.4
2018-01-04T06:24:10.879Z,14.3
2018-01-04T06:25:18.687Z,14.1
2018-01-04T06:26:21.364Z,14.4
2018-01-04T06:27:23.994Z,14.4
2018-01-04T06:28:26.639Z,14.5
2018-01-04T06:29:29.283Z,14.4
2018-01-04T06:30:31.998Z,15.3
2018-01-04T06:31:37.149Z,14.5
2018-01-04T06:32:40.704Z,14.1
2018-01-04T06:33:43.485Z,13.7
2018-01-04T06:34:46.291Z,14.1
2018-01-04T06:35:49.254Z,14.2
2018-01-04T06:36:51.870Z,13.9
2018-01-04T06:38:00.577Z,14.2
2018-01-04T06:39:03.834Z,14.5
2018-01-04T06:40:06.518Z,15
2018-01-04T06:41:09.189Z,15.3
2018-01-04T06:42:11.793Z,14.8
2018-01-04T06:43:19.244Z,14.6
2018-01-04T06:44:22.708Z,14.8
2018-01-04T06:45:26.768Z,14.5
2018-01-04T06:46:29.442Z,14.7
2018-01-04T06:47:32.179Z,14.7
2018-01-04T06:48:34.884Z,15.3
2018-01-04T06:49:37.582Z,15.1
2018-01-04T06:50:40.211Z,15.1
2018-01-04T06:51:42.982Z,15.4
2018-01-04T06:52:45.808Z,15.1
2018-01-04T06:53:48.568Z,15.2
2018-01-04T06:54:51.091Z,15.2
2018-01-04T06:55:53.681Z,14.5
2018-01-04T06:56:56.363Z,14.3
2018-01-04T06:57:59.030Z,14.3
2018-01-04T06:59:01.643Z,15
2018-01-04T07:00:04.299Z,14.5
2018-01-04T07:01:07.262Z,14.1
2018-01-04T07:02:09.898Z,14.3
2018-01-04T07:03:12.409Z,14.6
2018-01-04T07:04:15.125Z,15.4
2018-01-04T07:05:18.044Z,15
2018-01-04T07:06:20.853Z,14.7
2018-01-04T07:07:23.467Z,14.2
2018-01-04T07:08:26.026Z,14.7
2018-01-04T07:09:28.760Z,14.6
2018-01-04T07:10:31.299Z,14.9
2018-01-04T07:11:33.832Z,14.5
2018-01-04T07:12:36.321Z,14.4
2018-01-04T07:13:39.134Z,14.3
2018-01-04T07:14:41.933Z,14.2
2018-01-04T07:15:44.943Z,13.9
2018-01-04T07:16:48.601Z,13.8
2018-01-04T07:17:51.302Z,13.7
2018-01-04T07:18:53.965Z,13.8
2018-01-04T07:19:56.679Z,13.3
2018-01-04T07:20:59.332Z,13
2018-01-04T07:22:02.051Z,13.6
2018-01-04T07:23:04.755Z,13.7
2018-01-04T07:24:07.444Z,13.6
2018-01-04T07:25:10.212Z,13.6
2018-01-04T07:26:12.858Z,13.6
2018-01-04T07:27:15.395Z,14
2018-01-04T07:28:18.016Z,14
2018-01-04T07:29:20.921Z,14.1
2018-01-04T07:30:23.923Z,14.1
2018-01-04T07:31:26.712Z,14.2
2018-01-04T07:32:29.502Z,13.6
2018-01-04T07:33:32.131Z,13.4
2018-01-04T07:34:34.641Z,13.8
2018-01-04T07:35:37.294Z,13.6
2018-01-04T07:36:39.956Z,13.8
2018-01-04T07:37:42.487Z,13.8
2018-01-04T07:38:45.008Z,14
2018-01-04T07:39:47.683Z,13.6
2018-01-04T07:40:50.542Z,14
2018-01-04T07:41:53.199Z,14.1
2018-01-04T07:42:55.924Z,14.4
2018-01-04T07:43:58.654Z,14
2018-01-04T07:45:01.529Z,13.9
2018-01-04T07:46:04.105Z,13.7
2018-01-04T07:47:06.702Z,13.4
2018-01-04T07:48:09.524Z,13.5
2018-01-04T07:49:12.143Z,13.5
2018-01-04T07:50:14.762Z,13.6
2018-01-04T07:51:17.691Z,13.4
2018-01-04T07:52:20.438Z,14
2018-01-04T07:53:23.664Z,13.9
2018-01-04T07:54:27.954Z,14
2018-01-04T07:55:30.726Z,13.6
2018-01-04T07:56:33.411Z,13.3
2018-01-04T07:57:36.291Z,13.2
2018-01-04T07:58:39.012Z,13.1
2018-01-04T07:59:41.712Z,13.2
2018-01-04T08:00:44.474Z,13.6
2018-01-04T08:01:47.338Z,13.4
2018-01-04T08:02:50.220Z,13.7
2018-01-04T08:03:52.824Z,13.6
2018-01-04T08:04:55.445Z,13.9
2018-01-04T08:05:58.300Z,14.1
2018-01-04T08:07:00.909Z,14.1
2018-01-04T08:08:03.614Z,13.8
2018-01-04T08:09:06.234Z,13.6
2018-01-04T08:10:08.899Z,13.7
2018-01-04T08:11:11.609Z,13.5
2018-01-04T08:12:14.299Z,13.8
2018-01-04T08:13:16.883Z,13.9
2018-01-04T08:14:19.564Z,13.2
2018-01-04T08:15:22.279Z,13.6
2018-01-04T08:16:24.985Z,13.6
2018-01-04T08:17:28.412Z,14.7
2018-01-04T08:18:31.871Z,15.3
2018-01-04T08:19:34.499Z,15.6
2018-01-04T08:20:37.435Z,15.9
2018-01-04T08:21:41.914Z,16.1
2018-01-04T08:22:44.584Z,16.3
2018-01-04T08:23:47.203Z,16.3
2018-01-04T08:24:50.280Z,16.2
2018-01-04T08:25:52.976Z,16.3
2018-01-04T08:28:11.461Z,16.4
2018-01-04T08:29:16.739Z,16.4
2018-01-04T08:30:20.179Z,16.4
2018-01-04T08:31:22.804Z,16.5
2018-01-04T08:32:25.556Z,16.5
2018-01-04T08:33:28.428Z,16.5
2018-01-04T08:34:31.102Z,16.4
2018-01-04T08:35:33.709Z,16.5
2018-01-04T08:36:37.141Z,16.5
2018-01-04T08:37:41.711Z,16.6
2018-01-04T08:38:44.497Z,16.5
2018-01-04T08:39:47.111Z,16.6
2018-01-04T08:40:51.980Z,16.7
2018-01-04T08:41:54.678Z,16.7
2018-01-04T08:42:57.264Z,16.8
2018-01-04T08:43:59.901Z,16.9
2018-01-04T08:45:04.928Z,16.9
2018-01-04T08:46:09.429Z,16.8
2018-01-04T08:49:31.411Z,16.7
2018-01-04T08:50:34.289Z,16.8
2018-01-04T08:51:37.448Z,16.9
2018-01-04T08:52:44.546Z,16.9
2018-01-04T08:53:47.187Z,16.8
2018-01-04T08:54:53.511Z,16.8
2018-01-04T08:55:56.642Z,16.8
2018-01-04T08:57:02.955Z,16.9
2018-01-04T08:58:05.704Z,16.9
2018-01-04T08:59:08.650Z,17
2018-01-04T09:00:11.484Z,16.9
2018-01-04T09:01:15.565Z,16.9
2018-01-04T09:02:18.480Z,16.8
2018-01-04T09:04:28.676Z,17
2018-01-04T09:05:32.405Z,17.1
2018-01-04T09:06:35.211Z,17
2018-01-04T09:07:37.821Z,17.1
2018-01-04T09:08:41.317Z,17.3
2018-01-04T09:09:44.794Z,17.1
2018-01-04T09:10:48.089Z,17.1
2018-01-04T09:11:51.591Z,17
2018-01-04T09:12:55.299Z,17.1
2018-01-04T09:13:58.275Z,17.1
2018-01-04T09:15:01.204Z,17.2
2018-01-04T09:16:04.038Z,17
2018-01-04T09:17:06.690Z,17
2018-01-04T09:18:09.492Z,17
2018-01-04T09:19:12.362Z,17
2018-01-04T09:20:15.334Z,17.1
2018-01-04T09:21:18.015Z,17.2
2018-01-04T09:22:21.498Z,17.1
2018-01-04T09:23:24.453Z,17
2018-01-04T09:24:29.008Z,17
2018-01-04T09:25:33.892Z,17
2018-01-04T09:26:38.766Z,17.1
2018-01-04T09:27:42.169Z,17.1
2018-01-04T09:28:45.452Z,17.2
2018-01-04T09:29:48.975Z,17.1
2018-01-04T09:30:51.625Z,17.2
2018-01-04T09:31:54.212Z,17.1
2018-01-04T09:32:56.872Z,17.2
2018-01-04T09:33:59.530Z,17.3
2018-01-04T09:35:03.115Z,17.2
2018-01-04T09:36:06.628Z,17.2
2018-01-04T09:37:09.572Z,17.3
2018-01-04T09:38:12.946Z,17.3
2018-01-04T09:39:15.842Z,17.3
2018-01-04T09:40:18.585Z,17.2
2018-01-04T09:41:21.374Z,17.4
2018-01-04T09:42:24.157Z,17.3
2018-01-04T09:43:26.685Z,17.4
2018-01-04T09:44:29.326Z,17.4
2018-01-04T09:45:32.264Z,17.3
2018-01-04T09:46:35.305Z,17.3
2018-01-04T09:47:40.981Z,17.3
2018-01-04T09:48:45.315Z,17.3
2018-01-04T09:49:48.023Z,17.3
2018-01-04T09:50:50.717Z,17.3
2018-01-04T09:51:53.589Z,17.3
2018-01-04T09:52:56.904Z,17.2
2018-01-04T09:53:59.736Z,17.3
2018-01-04T09:55:02.524Z,17.3
2018-01-04T09:56:05.135Z,17.4
2018-01-04T09:57:07.888Z,17.4
2018-01-04T09:58:10.606Z,17.3
2018-01-04T09:59:13.392Z,17.4
2018-01-04T10:00:16.078Z,17.5
2018-01-04T10:01:19.052Z,17.5
2018-01-04T10:02:21.725Z,17.6
2018-01-04T10:03:24.406Z,17.5
2018-01-04T10:04:27.519Z,17.5
2018-01-04T10:05:30.993Z,17.4
2018-01-04T10:06:33.699Z,17.4
2018-01-04T10:07:36.629Z,17.5
2018-01-04T10:08:42.402Z,17.5
2018-01-04T10:09:47.003Z,17.5
2018-01-04T10:10:49.928Z,17.5
2018-01-04T10:11:52.976Z,17.5
2018-01-04T10:12:56.054Z,17.5
2018-01-04T10:13:59.415Z,17.5
2018-01-04T10:15:03.225Z,17.4
2018-01-04T10:16:06.190Z,17.5
2018-01-04T10:17:09.378Z,17.6
2018-01-04T10:18:12.311Z,17.6
2018-01-04T10:19:15.076Z,17.6
2018-01-04T10:20:17.826Z,17.6
2018-01-04T10:21:20.597Z,17.7
2018-01-04T10:22:23.194Z,17.5
2018-01-04T10:23:25.972Z,17.6
2018-01-04T10:24:29.470Z,17.5
2018-01-04T10:25:32.096Z,17.5
2018-01-04T10:26:34.996Z,17.5
2018-01-04T10:27:42.117Z,17.4
2018-01-04T10:28:47.085Z,17.5
2018-01-04T10:29:50.027Z,17.5
2018-01-04T10:30:52.838Z,17.5
2018-01-04T10:31:55.836Z,17.6
2018-01-04T10:32:58.496Z,17.6
2018-01-04T10:34:09.145Z,17.6
2018-01-04T10:35:14.501Z,17.6
2018-01-04T10:36:28.321Z,17.6
2018-01-04T10:37:36.092Z,17.6
2018-01-04T10:38:40.901Z,17.6
2018-01-04T10:39:43.867Z,17.5
2018-01-04T10:40:46.864Z,17.6
2018-01-04T10:41:49.721Z,17.5
2018-01-04T10:42:52.637Z,17.5
2018-01-04T10:43:55.445Z,17.5
2018-01-04T10:45:01.405Z,17.5
2018-01-04T10:46:05.408Z,17.7
2018-01-04T10:47:10.236Z,17.7
2018-01-04T10:48:13.489Z,17.6
2018-01-04T10:49:19.166Z,17.7
2018-01-04T10:50:21.943Z,17.7
2018-01-04T10:51:24.819Z,17.8
2018-01-04T10:52:27.771Z,17.7
2018-01-04T10:53:30.915Z,17.8
2018-01-04T10:54:34.165Z,17.6
2018-01-04T10:55:37.182Z,17.8
2018-01-04T10:56:40.172Z,17.8
2018-01-04T10:57:43.291Z,17.7
2018-01-04T10:58:46.308Z,17.7
2018-01-04T10:59:49.349Z,17.6
2018-01-04T11:00:52.046Z,17.7
2018-01-04T11:01:55.079Z,17.7
2018-01-04T11:02:58.370Z,17.6
2018-01-04T11:04:01.695Z,17.5
2018-01-04T11:05:05.153Z,17.6
2018-01-04T11:06:08.288Z,17.5
2018-01-04T11:07:11.197Z,17.6
2018-01-04T11:08:16.031Z,17.6
2018-01-04T11:09:20.460Z,17.5
2018-01-04T11:10:23.943Z,17.7
2018-01-04T11:11:26.881Z,17.7
2018-01-04T11:12:30.086Z,17.5
2018-01-04T11:13:33.840Z,17.6
2018-01-04T11:14:40.037Z,17.7
2018-01-04T11:15:43.612Z,17.5
2018-01-04T11:16:47.151Z,17.6
2018-01-04T11:17:50.799Z,17.5
2018-01-04T11:18:55.107Z,17.6
2018-01-04T11:19:57.967Z,17.6
2018-01-04T11:21:06.612Z,17.6
2018-01-04T11:22:10.059Z,17.6
2018-01-04T11:23:13.785Z,17.7
2018-01-04T11:24:16.551Z,17.7
2018-01-04T11:25:19.295Z,17.6
2018-01-04T11:26:22.006Z,17.6
2018-01-04T11:27:24.762Z,17.5
2018-01-04T11:28:28.069Z,17.6
2018-01-04T11:29:31.112Z,17.6
2018-01-04T11:30:34.366Z,17.5
2018-01-04T11:32:44.982Z,17.6
2018-01-04T11:33:47.789Z,17.6
2018-01-04T11:34:51.103Z,17.5
2018-01-04T11:35:53.695Z,17.6
2018-01-04T11:36:56.732Z,17.6
2018-01-04T11:38:12.215Z,17.7
2018-01-04T11:39:17.497Z,17.7
2018-01-04T11:40:20.404Z,17.7
2018-01-04T11:41:23.420Z,17.7
2018-01-04T11:42:26.027Z,17.7
2018-01-04T11:43:29.452Z,17.7
2018-01-04T11:44:32.113Z,17.7
2018-01-04T11:45:34.787Z,17.7
2018-01-04T11:46:37.809Z,17.6
2018-01-04T11:47:41.618Z,17.6
2018-01-04T11:48:44.330Z,17.7
2018-01-04T11:49:47.185Z,17.5
2018-01-04T11:50:49.905Z,17.4
2018-01-04T11:51:52.687Z,17.6
2018-01-04T11:52:55.334Z,17.9
2018-01-04T11:53:58.071Z,18.1
2018-01-04T11:55:01.023Z,18.2
2018-01-04T11:56:03.849Z,18.4
2018-01-04T11:57:06.702Z,18.5
2018-01-04T11:58:09.680Z,18.5
2018-01-04T11:59:12.367Z,18.6
2018-01-04T12:00:15.128Z,18.5
2018-01-04T12:01:17.927Z,18.5
2018-01-04T12:02:21.133Z,18.5
2018-01-04T12:03:24.144Z,18.3
2018-01-04T12:04:26.696Z,18.6
2018-01-04T12:05:29.611Z,18.6
2018-01-04T12:06:32.285Z,18.6
2018-01-04T12:07:36.536Z,18.8
2018-01-04T12:08:39.592Z,18.6
2018-01-04T12:09:42.183Z,18.6
2018-01-04T12:10:44.781Z,18.5
2018-01-04T12:11:47.445Z,18.5
2018-01-04T12:12:50.163Z,18.6
2018-01-04T12:13:52.807Z,18.6
2018-01-04T12:14:55.377Z,18.5
2018-01-04T12:15:58.018Z,18.5
2018-01-04T12:17:01.540Z,18.5
2018-01-04T12:18:04.425Z,18.4
2018-01-04T12:19:07.714Z,18.4
2018-01-04T12:20:10.498Z,18.3
2018-01-04T12:21:13.269Z,18.3
2018-01-04T12:22:15.937Z,18.3
2018-01-04T12:23:18.653Z,18.1
2018-01-04T12:24:21.529Z,18.2
2018-01-04T12:25:24.193Z,18.2
2018-01-04T12:26:26.773Z,18.1
2018-01-04T12:27:29.391Z,18.1
2018-01-04T12:28:32.107Z,18.1
2018-01-04T12:29:34.768Z,18.2
2018-01-04T12:30:37.440Z,18.2
2018-01-04T12:31:40.384Z,18.2
2018-01-04T12:32:43.142Z,18.3
2018-01-04T12:33:45.907Z,18.2
2018-01-04T12:34:48.870Z,18.2
2018-01-04T12:35:51.765Z,18.2
2018-01-04T12:36:56.052Z,18.2
2018-01-04T12:37:58.736Z,18.1
2018-01-04T12:39:01.279Z,18.1
2018-01-04T12:40:03.710Z,18
2018-01-04T12:41:06.303Z,18.1
2018-01-04T12:42:09.141Z,18.1
2018-01-04T12:43:11.642Z,18.1
2018-01-04T12:44:14.316Z,18.1
2018-01-04T12:45:17.034Z,18.1
2018-01-04T12:46:20.032Z,18.1
2018-01-04T12:47:22.929Z,18.1
2018-01-04T12:48:25.646Z,18.1
2018-01-04T12:49:28.263Z,18
2018-01-04T12:50:31.008Z,18.1
2018-01-04T12:51:33.695Z,18
2018-01-04T12:52:36.347Z,18
2018-01-04T12:53:38.944Z,17.9
2018-01-04T12:54:41.710Z,18.1
2018-01-04T12:55:44.378Z,18.1
2018-01-04T12:56:47.151Z,18.3
2018-01-04T12:57:50.322Z,18.4
2018-01-04T12:58:52.966Z,18.3
2018-01-04T12:59:55.590Z,18.1
2018-01-04T13:00:58.255Z,18.1
2018-01-04T13:02:01.003Z,18.1
2018-01-04T13:03:03.785Z,18
2018-01-04T13:04:06.295Z,18.2
2018-01-04T13:05:09.441Z,18.3
2018-01-04T13:06:12.055Z,18.2
2018-01-04T13:07:14.568Z,18.2
2018-01-04T13:08:17.125Z,18
2018-01-04T13:09:19.746Z,18.1
2018-01-04T13:10:22.341Z,18
2018-01-04T13:11:24.885Z,18.1
2018-01-04T13:12:27.346Z,18.1
2018-01-04T13:13:29.936Z,18.1
2018-01-04T13:14:32.463Z,18.1
2018-01-04T13:15:35.021Z,18.1
2018-01-04T13:16:37.465Z,18.1
2018-01-04T13:17:40.083Z,18
2018-01-04T13:18:42.668Z,18.1
2018-01-04T13:19:48.803Z,18.1
2018-01-04T13:20:51.424Z,18.1
2018-01-04T13:21:54.009Z,18
2018-01-04T13:22:56.551Z,18.1
2018-01-04T13:23:59.110Z,18
2018-01-04T13:25:01.734Z,18.1
2018-01-04T13:26:04.267Z,18
2018-01-04T13:27:06.892Z,18.1
2018-01-04T13:28:10.733Z,18
2018-01-04T13:29:13.206Z,17.9
2018-01-04T13:30:15.679Z,18.1
2018-01-04T13:31:18.147Z,18.1
2018-01-04T13:32:20.710Z,18.1
2018-01-04T13:33:23.178Z,18
2018-01-04T13:34:25.865Z,18.1
2018-01-04T13:35:28.432Z,18
2018-01-04T13:36:31.053Z,18
2018-01-04T13:37:33.655Z,18.1
2018-01-04T13:38:36.234Z,18
2018-01-04T13:39:38.752Z,17.9
2018-01-04T13:40:41.870Z,17.9
2018-01-04T13:41:44.402Z,17.8
2018-01-04T13:42:46.886Z,17.9
2018-01-04T13:43:49.413Z,17.8
2018-01-04T13:44:51.871Z,17.8
2018-01-04T13:45:54.340Z,17.9
2018-01-04T13:47:02.431Z,17.8
2018-01-04T13:48:05.013Z,17.9
2018-01-04T13:49:07.498Z,17.9
2018-01-04T13:50:10.087Z,17.9
2018-01-04T13:51:12.720Z,17.9
2018-01-04T13:52:15.451Z,17.9
2018-01-04T13:53:17.930Z,17.8
2018-01-04T13:54:20.535Z,17.8
2018-01-04T13:55:23.011Z,17.8
2018-01-04T13:56:25.584Z,17.8
2018-01-04T13:57:28.087Z,17.9
2018-01-04T13:58:30.709Z,17.9
2018-01-04T13:59:33.263Z,17.9
2018-01-04T14:00:35.798Z,17.9
2018-01-04T14:01:38.363Z,17.8
2018-01-04T14:02:40.912Z,17.8
2018-01-04T14:03:43.406Z,17.8
2018-01-04T14:04:45.888Z,17.7
2018-01-04T14:05:48.373Z,17.6
2018-01-04T14:06:50.850Z,17.7
2018-01-04T14:07:53.404Z,17.9
2018-01-04T14:08:55.870Z,17.8